aviador You're here:

KMHT Decoded Metar

MANCHESTER in NH, USA
Report Time2017-08-19 14:53:00
UTC Time2017-08-19 15:02:16
Flight Rules lifr LIFR
Wind210° at 04 kt
W.Decomp.*RWY 24: 3.9 kt HW 1 kt LCW
RWY 17: 2.2 kt HW 3.3 kt RCW
W.Rank210° ranks 16
Current wind is below 210° avg. (6.2)
Visibility3219 m
Phenomena:Haze
Clouds:Overcast 004 Hf
Expected CloudBase > 1,200 ft AGL from Temp-Dew spread
Ceiling400 ft
Temp21°C (ISA +7)
Dew Point18°C (83% RH)
QNH1010 hPa
Density Alt1,404 ft
Elevation266 ft
Report Wrong Elevation
Raw Report
KMHT 191453Z 21004KT 2SM HZ OVC004 21/18 A2982 RMK AO2 SFC VIS 4
SLP108 T02060178 53004=

Extra information for KMHT:More info

Metar Taf Metar & Taf Last 4 Metars F.Rules Stats Wind Profile Meteogram Temp Stats Airport Information Weather charts Add Link Nearby VenuesMetar ALERT Operation Metar Decoded Social comments

AIRNAV info for KMHT